Terminal Aerodrome Forecast
Issued by NWS

Home | Current Version | Previous Version | Text Only | Print | Product List | Glossary On
Versions: 1 2 3 4 5 6 7 8 9 10 11 12 13 14 15
000
FTUS43 KMQT 281734
TAFSAW
TAF
KSAW 281734Z 2818/2918 19011G22KT P6SM OVC200
     FM290300 19012KT P6SM SCT080 WS010/22032KT
     FM290600 19011KT P6SM -SHRA BKN070 WS010/22035KT
     FM290800 19011G18KT P6SM -SHRA OVC030
     FM291200 21008G18KT P6SM SCT040
     FM291300 22009G20KT P6SM FEW060=

USA.gov is the U.S. government's official web portal to all federal, state and local government web resources and services.